Time;durP1;ratioP1;P1;durP2;ratioP2;P2;SDS_P1;SDS_P2;PMS_P1;PMS_P2;Temp;Humidity;BMP_temperature;BMP_pressure;BME280_temperature;BME280_humidity;BME280_pressure;Samples;Min_cycle;Max_cycle;Signal;HPM_P1;HPM_P2
2023/07/07 00:00:01;;;;;;;6.27;4.13;;;14.10;15.90;;;;;;4954150;29;20674;-67
2023/07/07 00:02:27;;;;;;;4.83;3.43;;;14.00;16.70;;;;;;4953933;29;20209;-67
2023/07/07 00:04:52;;;;;;;4.83;3.40;;;14.00;16.40;;;;;;4955363;28;21050;-67
2023/07/07 00:07:18;;;;;;;3.77;3.37;;;14.00;16.40;;;;;;4954277;29;20668;-67
2023/07/07 00:09:44;;;;;;;4.67;3.50;;;13.90;16.70;;;;;;4954340;29;20661;-67
2023/07/07 00:12:10;;;;;;;7.90;4.97;;;13.90;16.70;;;;;;4954104;29;20428;-67
2023/07/07 00:14:36;;;;;;;12.93;3.90;;;13.80;16.70;;;;;;4954664;28;20289;-67
2023/07/07 00:17:01;;;;;;;6.70;4.07;;;13.80;16.70;;;;;;4955074;29;20549;-67
2023/07/07 00:19:34;;;;;;;7.70;4.50;;;13.80;16.70;;;;;;4954801;28;20175;-67
2023/07/07 00:22:05;;;;;;;4.80;3.90;;;13.80;16.70;;;;;;4954667;29;20178;-67
2023/07/07 00:24:31;;;;;;;5.67;3.87;;;13.70;17.40;;;;;;4953259;28;20445;-67
2023/07/07 00:26:57;;;;;;;6.93;3.23;;;13.70;17.70;;;;;;4954699;29;20513;-67
2023/07/07 00:29:23;;;;;;;6.10;3.80;;;13.70;17.10;;;;;;4953393;29;21027;-67
2023/07/07 00:31:48;;;;;;;8.30;4.20;;;13.70;17.30;;;;;;4954568;29;20213;-67
2023/07/07 00:34:14;;;;;;;6.30;3.50;;;13.60;17.60;;;;;;4953373;28;20206;-67
2023/07/07 00:36:39;;;;;;;4.37;3.70;;;13.60;16.60;;;;;;4955164;28;20461;-67
2023/07/07 00:39:05;;;;;;;3.93;3.00;;;13.60;17.30;;;;;;4954964;29;20175;-67
2023/07/07 00:41:31;;;;;;;3.83;3.43;;;13.60;16.50;;;;;;4954906;29;20182;-68
2023/07/07 00:44:14;;;;;;;4.43;2.67;;;13.60;17.30;;;;;;4955158;28;20242;-67
2023/07/07 00:46:40;;;;;;;5.00;2.83;;;13.60;16.80;;;;;;4953799;28;20183;-67
2023/07/07 00:49:14;;;;;;;8.23;3.10;;;13.50;17.80;;;;;;4954284;29;20425;-67
2023/07/07 00:51:47;;;;;;;5.30;4.40;;;13.40;18.00;;;;;;4954871;28;20500;-67
2023/07/07 00:54:18;;;;;;;3.97;2.70;;;13.40;18.30;;;;;;4953832;28;20446;-67
2023/07/07 00:56:49;;;;;;;8.30;3.80;;;13.40;19.00;;;;;;4954988;28;20468;-67
2023/07/07 00:59:21;;;;;;;6.13;2.90;;;13.40;18.70;;;;;;4954966;29;20496;-67
2023/07/07 01:01:50;;;;;;;4.90;2.70;;;13.30;19.20;;;;;;4954592;29;20425;-67
2023/07/07 01:04:17;;;;;;;5.17;2.73;;;13.30;18.90;;;;;;4953105;28;20548;-67
2023/07/07 01:06:51;;;;;;;4.37;3.07;;;13.20;19.10;;;;;;4953088;29;20436;-67
2023/07/07 01:09:16;;;;;;;4.47;3.10;;;13.30;18.60;;;;;;4954325;29;20425;-67
2023/07/07 01:11:44;;;;;;;5.13;3.00;;;13.30;18.50;;;;;;4954570;28;20896;-67
2023/07/07 01:14:20;;;;;;;4.70;3.57;;;13.30;18.60;;;;;;4953476;28;20207;-67
2023/07/07 01:17:05;;;;;;;6.70;3.53;;;13.30;19.00;;;;;;4955238;28;20467;-67
2023/07/07 01:19:52;;;;;;;6.50;3.93;;;13.20;19.70;;;;;;4955284;28;20418;-67
2023/07/07 01:22:46;;;;;;;4.70;3.40;;;13.10;19.70;;;;;;4953123;29;20421;-67
2023/07/07 01:25:39;;;;;;;5.73;3.97;;;13.10;19.90;;;;;;4953607;28;20438;-67
2023/07/07 01:28:31;;;;;;;6.13;3.77;;;13.10;20.10;;;;;;4954791;29;20424;-67
2023/07/07 01:31:17;;;;;;;4.47;3.67;;;13.10;19.80;;;;;;4954507;28;20459;-67
2023/07/07 01:33:45;;;;;;;4.13;3.30;;;12.90;20.80;;;;;;4955023;28;20444;-67
2023/07/07 01:36:11;;;;;;;6.10;4.53;;;12.90;20.40;;;;;;4953691;29;21019;-67
2023/07/07 01:38:44;;;;;;;4.13;3.17;;;12.90;20.50;;;;;;4953291;28;20433;-67
2023/07/07 01:41:38;;;;;;;4.87;3.23;;;12.90;20.40;;;;;;4953360;29;20647;-67
2023/07/07 01:44:27;;;;;;;5.60;4.00;;;12.90;20.80;;;;;;4953287;28;20959;-67
2023/07/07 01:46:59;;;;;;;5.60;3.23;;;12.90;20.60;;;;;;4954117;28;20962;-67
2023/07/07 01:49:34;;;;;;;4.27;3.43;;;12.90;21.10;;;;;;4958080;29;20480;-67
2023/07/07 01:52:10;;;;;;;6.57;3.80;;;12.80;21.50;;;;;;4957740;29;20436;-67
2023/07/07 01:54:44;;;;;;;4.60;3.47;;;12.80;22.50;;;;;;4957803;28;20460;-67
2023/07/07 01:57:11;;;;;;;4.27;3.30;;;12.70;22.40;;;;;;4956443;28;20465;-67
2023/07/07 01:59:40;;;;;;;5.73;3.10;;;12.70;21.80;;;;;;4957448;29;21014;-67
2023/07/07 02:02:07;;;;;;;4.50;3.00;;;12.70;21.70;;;;;;4956352;29;20422;-67
2023/07/07 02:04:32;;;;;;;5.10;3.90;;;12.70;22.20;;;;;;5010292;23;20494;-74
2023/07/07 02:06:58;;;;;;;5.87;4.47;;;12.70;22.40;;;;;;5014704;28;20426;-72
2023/07/07 02:09:23;;;;;;;6.80;4.13;;;12.70;22.70;;;;;;5014683;28;20180;-71
2023/07/07 02:11:49;;;;;;;6.30;3.37;;;12.70;22.50;;;;;;5014264;28;20656;-72
2023/07/07 02:14:15;;;;;;;7.63;5.00;;;12.70;22.20;;;;;;5014507;28;20211;-73
2023/07/07 02:16:40;;;;;;;4.20;3.20;;;12.70;22.30;;;;;;5014451;28;20211;-72
2023/07/07 02:19:06;;;;;;;6.47;4.17;;;12.70;22.30;;;;;;5013204;28;20187;-72
2023/07/07 02:21:31;;;;;;;5.50;3.90;;;12.70;22.80;;;;;;5014268;28;20179;-72
2023/07/07 02:23:57;;;;;;;6.20;3.67;;;12.70;22.70;;;;;;5012984;28;20191;-72
2023/07/07 02:26:22;;;;;;;4.70;3.37;;;12.60;23.40;;;;;;5014292;28;20187;-71
2023/07/07 02:28:48;;;;;;;5.00;3.57;;;12.50;23.30;;;;;;5014212;28;20188;-72
2023/07/07 02:31:13;;;;;;;4.50;3.63;;;12.50;24.20;;;;;;5014300;28;20207;-71
2023/07/07 02:33:39;;;;;;;6.00;3.20;;;12.50;23.10;;;;;;5013962;28;20700;-73
2023/07/07 02:36:07;;;;;;;6.20;3.80;;;12.60;23.70;;;;;;5014075;28;20539;-71
2023/07/07 02:38:34;;;;;;;7.13;4.33;;;12.60;23.40;;;;;;5012870;28;20176;-73
2023/07/07 02:41:01;;;;;;;6.07;3.37;;;12.60;23.80;;;;;;5013934;28;20777;-71
2023/07/07 02:43:27;;;;;;;4.30;3.53;;;12.60;23.20;;;;;;5013727;28;20418;-72
2023/07/07 02:45:52;;;;;;;5.20;3.70;;;12.60;22.70;;;;;;5014118;28;20437;-72
2023/07/07 02:48:19;;;;;;;7.00;3.70;;;12.50;23.50;;;;;;5013985;28;20419;-72
2023/07/07 02:50:55;;;;;;;7.03;3.33;;;12.50;24.20;;;;;;5013863;28;20519;-71
2023/07/07 02:53:21;;;;;;;6.10;4.53;;;12.50;24.30;;;;;;5013463;28;20908;-72
2023/07/07 02:55:46;;;;;;;5.37;3.43;;;12.50;24.80;;;;;;5013639;28;20415;-72
2023/07/07 02:58:12;;;;;;;4.87;3.70;;;12.60;22.70;;;;;;5012659;28;20434;-73
2023/07/07 03:00:37;;;;;;;5.27;3.77;;;12.50;23.00;;;;;;5013804;28;20214;-72
2023/07/07 03:03:03;;;;;;;6.87;4.40;;;12.50;23.40;;;;;;5013357;28;20187;-72
2023/07/07 03:05:31;;;;;;;6.90;4.00;;;12.50;23.60;;;;;;5013593;28;20216;-72
2023/07/07 03:07:56;;;;;;;5.97;3.80;;;12.40;24.20;;;;;;5013490;28;20219;-72
2023/07/07 03:10:22;;;;;;;4.83;3.60;;;12.40;24.80;;;;;;5013426;28;20419;-72
2023/07/07 03:12:48;;;;;;;4.53;3.80;;;12.50;23.30;;;;;;5013196;28;20415;-72
2023/07/07 03:15:13;;;;;;;4.70;3.90;;;12.50;24.00;;;;;;5012232;28;20210;-72
2023/07/07 03:17:39;;;;;;;8.20;4.90;;;12.40;23.70;;;;;;5013337;28;20268;-73
2023/07/07 03:20:08;;;;;;;4.70;3.80;;;12.40;24.20;;;;;;5013421;28;20207;-72
2023/07/07 03:22:35;;;;;;;4.40;3.77;;;12.40;24.20;;;;;;5012993;28;20423;-72
2023/07/07 03:25:00;;;;;;;4.70;3.60;;;12.40;24.30;;;;;;5013229;28;20434;-72
2023/07/07 03:27:27;;;;;;;5.50;4.23;;;12.40;25.30;;;;;;5013295;28;20424;-71
2023/07/07 03:29:52;;;;;;;5.97;3.60;;;12.40;25.20;;;;;;5011834;28;20426;-72
2023/07/07 03:32:18;;;;;;;6.90;4.13;;;12.30;24.50;;;;;;5012956;28;20415;-72
2023/07/07 03:34:43;;;;;;;4.67;3.73;;;12.30;25.20;;;;;;5013086;28;20543;-70
2023/07/07 03:37:09;;;;;;;4.70;3.80;;;12.30;25.60;;;;;;5013015;28;20199;-70
2023/07/07 03:39:35;;;;;;;7.70;4.20;;;12.30;26.20;;;;;;5013089;28;20172;-70
2023/07/07 03:42:01;;;;;;;6.33;3.60;;;12.40;26.50;;;;;;5012765;28;20192;-71
2023/07/07 03:44:26;;;;;;;5.97;3.97;;;12.40;25.90;;;;;;5013030;28;20244;-71
2023/07/07 03:46:52;;;;;;;5.53;3.33;;;12.30;26.10;;;;;;5012972;28;20465;-71
2023/07/07 03:49:18;;;;;;;4.40;3.87;;;12.30;26.80;;;;;;5011652;28;20188;-71
2023/07/07 03:51:44;;;;;;;5.93;4.30;;;12.30;26.40;;;;;;5012340;28;20208;-71
2023/07/07 03:54:09;;;;;;;6.03;4.70;;;12.40;25.80;;;;;;5012627;28;20530;-70
2023/07/07 03:56:35;;;;;;;6.57;3.97;;;12.50;26.20;;;;;;5012748;28;20211;-71
2023/07/07 03:59:00;;;;;;;6.30;3.90;;;12.50;25.90;;;;;;5012813;28;20263;-71
2023/07/07 04:01:26;;;;;;;5.57;3.23;;;12.50;25.50;;;;;;5012572;28;20198;-72
2023/07/07 04:03:52;;;;;;;6.73;4.23;;;12.60;25.40;;;;;;5012297;28;20206;-71
2023/07/07 04:06:18;;;;;;;6.73;4.37;;;12.60;25.00;;;;;;5012668;28;20434;-72
2023/07/07 04:08:44;;;;;;;8.27;4.50;;;12.60;24.90;;;;;;5012353;28;20234;-73
2023/07/07 04:11:12;;;;;;;6.20;4.17;;;12.70;24.40;;;;;;5012178;28;20831;-71
2023/07/07 04:13:40;;;;;;;5.33;4.40;;;12.70;25.00;;;;;;5012844;28;20526;-71
2023/07/07 04:16:08;;;;;;;6.70;4.80;;;12.70;24.90;;;;;;5014889;28;20476;-72
2023/07/07 04:18:35;;;;;;;8.33;4.60;;;12.80;24.50;;;;;;5014084;28;20919;-74
2023/07/07 04:21:05;;;;;;;6.33;3.40;;;12.90;23.80;;;;;;5013021;28;20450;-73
2023/07/07 04:23:31;;;;;;;5.80;3.97;;;12.90;23.60;;;;;;5012701;28;20942;-72
2023/07/07 04:25:57;;;;;;;7.50;4.87;;;13.00;23.60;;;;;;5011518;28;20438;-72
2023/07/07 04:28:22;;;;;;;6.93;4.70;;;13.00;23.20;;;;;;5012411;28;20411;-74
2023/07/07 04:30:53;;;;;;;4.23;3.30;;;13.10;22.60;;;;;;5012707;28;20176;-72
2023/07/07 04:33:19;;;;;;;6.97;4.07;;;13.10;23.10;;;;;;5011882;28;20172;-72
2023/07/07 04:35:44;;;;;;;8.00;4.80;;;13.20;23.20;;;;;;5012066;28;20724;-71
2023/07/07 04:38:10;;;;;;;7.70;4.90;;;13.20;23.00;;;;;;5011984;28;20427;-72
2023/07/07 04:40:35;;;;;;;5.23;3.63;;;13.30;24.20;;;;;;5012376;28;20181;-72
2023/07/07 04:43:01;;;;;;;5.30;3.10;;;13.40;24.90;;;;;;5011848;28;20574;-71
2023/07/07 04:45:27;;;;;;;5.50;4.27;;;13.50;24.60;;;;;;5011960;28;20206;-71
2023/07/07 04:47:52;;;;;;;6.13;4.10;;;13.60;24.20;;;;;;5010958;28;20187;-71
2023/07/07 04:50:18;;;;;;;7.07;4.43;;;13.70;23.50;;;;;;5012113;28;20194;-71
2023/07/07 04:52:43;;;;;;;7.13;4.00;;;13.70;21.40;;;;;;5011825;28;20540;-72
2023/07/07 04:55:09;;;;;;;5.00;4.10;;;13.80;21.00;;;;;;5012062;28;20199;-73
2023/07/07 04:57:34;;;;;;;6.20;3.87;;;13.90;21.00;;;;;;5012073;28;20648;-72
2023/07/07 05:00:02;;;;;;;4.63;4.20;;;14.00;20.60;;;;;;5011895;28;20217;-72
2023/07/07 05:02:28;;;;;;;7.77;4.10;;;14.20;21.20;;;;;;5011518;28;20164;-72
2023/07/07 05:04:53;;;;;;;10.17;5.30;;;14.20;21.70;;;;;;5011904;28;21015;-73
2023/07/07 05:07:19;;;;;;;7.20;3.67;;;14.40;21.70;;;;;;5011783;28;20206;-72
2023/07/07 05:09:45;;;;;;;4.77;3.87;;;14.50;21.50;;;;;;5011793;28;20185;-72
2023/07/07 05:12:10;;;;;;;5.20;4.17;;;14.60;21.50;;;;;;5011609;28;20551;-72
2023/07/07 05:14:36;;;;;;;8.00;4.70;;;14.80;21.80;;;;;;5011975;28;20229;-73
2023/07/07 05:17:01;;;;;;;4.53;3.60;;;15.00;22.00;;;;;;5011713;28;20207;-71
2023/07/07 05:19:27;;;;;;;7.67;4.73;;;15.30;22.00;;;;;;5011603;28;20204;-72
2023/07/07 05:21:52;;;;;;;10.77;6.60;;;15.40;19.10;;;;;;5012589;28;20308;-72
2023/07/07 05:24:18;;;;;;;5.90;3.83;;;15.50;17.80;;;;;;5015345;28;20245;-72
2023/07/07 05:26:44;;;;;;;8.80;4.50;;;15.60;16.70;;;;;;5015344;28;20253;-73
2023/07/07 05:29:10;;;;;;;5.30;4.17;;;15.80;13.70;;;;;;5015228;28;20194;-72
2023/07/07 05:31:35;;;;;;;7.07;4.90;;;15.90;11.00;;;;;;5014980;28;20175;-71
2023/07/07 05:34:01;;;;;;;6.20;4.40;;;16.10;12.60;;;;;;5014986;28;20226;-72
2023/07/07 05:36:27;;;;;;;4.23;3.73;;;16.30;15.40;;;;;;5014946;28;20701;-73
2023/07/07 05:38:52;;;;;;;7.90;4.67;;;16.50;13.30;;;;;;5015440;28;20187;-72
2023/07/07 05:41:18;;;;;;;7.00;4.83;;;16.90;14.30;;;;;;5015332;28;20522;-71
2023/07/07 05:43:44;;;;;;;5.40;3.83;;;18.10;15.40;;;;;;5014737;28;20195;-71
2023/07/07 05:46:12;;;;;;;5.60;5.10;;;20.90;1.60;;;;;;5014796;28;20218;-72
2023/07/07 05:48:38;;;;;;;9.30;6.20;;;23.60;1.00;;;;;;5013588;28;20184;-72
2023/07/07 05:51:06;;;;;;;6.70;5.60;;;26.10;1.90;;;;;;5014837;28;20421;-72
2023/07/07 05:53:34;;;;;;;6.30;5.70;;;28.40;1.00;;;;;;5014533;28;20172;-72
2023/07/07 05:56:08;;;;;;;7.00;5.70;;;30.40;1.00;;;;;;5014656;28;20419;-72
2023/07/07 05:58:34;;;;;;;7.30;6.60;;;31.80;1.00;;;;;;5014844;28;20469;-73
2023/07/07 06:01:00;;;;;;;9.70;6.97;;;32.80;1.00;;;;;;5014594;28;20510;-72
2023/07/07 06:03:26;;;;;;;6.90;6.40;;;33.30;1.00;;;;;;5014418;28;20418;-70
2023/07/07 06:05:51;;;;;;;8.30;7.60;;;34.10;1.00;;;;;;5014680;28;20415;-70
2023/07/07 06:08:17;;;;;;;6.90;6.27;;;33.30;1.00;;;;;;5014590;28;20179;-70
2023/07/07 06:10:49;;;;;;;7.37;6.70;;;34.50;1.00;;;;;;5014673;28;20259;-71
2023/07/07 06:13:18;;;;;;;7.43;6.73;;;35.80;1.00;;;;;;5013027;28;20180;-73
2023/07/07 06:15:44;;;;;;;7.60;7.00;;;36.20;1.00;;;;;;5014352;28;20446;-73
2023/07/07 06:18:10;;;;;;;7.87;6.73;;;36.30;1.00;;;;;;5014197;28;20466;-72
2023/07/07 06:20:36;;;;;;;8.50;7.80;;;35.80;1.00;;;;;;5014452;28;20419;-73
2023/07/07 06:23:03;;;;;;;15.10;7.13;;;36.00;1.00;;;;;;5014238;28;20430;-73
2023/07/07 06:25:28;;;;;;;10.93;8.43;;;37.10;1.00;;;;;;5014128;28;20219;-73
2023/07/07 06:27:54;;;;;;;7.00;6.40;;;36.80;1.00;;;;;;5014186;28;20415;-73
2023/07/07 06:30:19;;;;;;;6.90;6.30;;;36.50;1.00;;;;;;5014227;28;20204;-72
2023/07/07 06:32:45;;;;;;;7.93;7.13;;;37.10;1.00;;;;;;5013889;28;20176;-73
2023/07/07 06:35:10;;;;;;;11.40;7.93;;;35.90;1.00;;;;;;5013930;28;20195;-72
2023/07/07 06:37:36;;;;;;;7.70;7.20;;;35.80;1.00;;;;;;5013904;28;20200;-73
2023/07/07 06:40:01;;;;;;;7.40;6.70;;;34.90;1.00;;;;;;5013912;28;20508;-71
2023/07/07 06:42:27;;;;;;;8.33;7.57;;;35.00;1.00;;;;;;5013671;28;20255;-72
2023/07/07 06:44:52;;;;;;;6.60;6.10;;;35.30;1.00;;;;;;5013735;28;20665;-72
2023/07/07 06:47:18;;;;;;;6.43;5.80;;;36.10;1.00;;;;;;5013694;28;20176;-75
2023/07/07 06:49:44;;;;;;;7.93;7.30;;;34.80;1.00;;;;;;5012247;28;20179;-72
2023/07/07 06:52:10;;;;;;;7.03;6.53;;;36.30;1.00;;;;;;5013341;28;20551;-72
2023/07/07 06:54:35;;;;;;;8.53;7.73;;;37.80;1.00;;;;;;5013487;28;20191;-71
2023/07/07 06:57:01;;;;;;;7.87;7.23;;;38.70;1.00;;;;;;5013239;28;20211;-71
2023/07/07 06:59:30;;;;;;;7.03;6.33;;;38.30;1.00;;;;;;5013368;28;20182;-72
2023/07/07 07:01:55;;;;;;;6.93;6.40;;;37.90;1.00;;;;;;5013423;28;20565;-71
2023/07/07 07:04:21;;;;;;;6.23;5.70;;;37.70;1.00;;;;;;5013185;28;20447;-74
2023/07/07 07:06:46;;;;;;;6.90;6.37;;;36.80;1.00;;;;;;5013439;28;20172;-72
2023/07/07 07:09:12;;;;;;;8.37;6.87;;;36.10;1.00;;;;;;5013226;28;20724;-73
2023/07/07 07:11:38;;;;;;;6.53;5.90;;;36.00;1.00;;;;;;5012980;28;20245;-73
2023/07/07 07:14:03;;;;;;;7.40;6.70;;;36.70;1.00;;;;;;5013025;28;20206;-73
2023/07/07 07:16:29;;;;;;;7.20;6.50;;;37.10;1.00;;;;;;5013112;28;20293;-74
2023/07/07 07:18:54;;;;;;;6.77;6.27;;;38.50;1.00;;;;;;5013232;28;20226;-71
2023/07/07 07:21:20;;;;;;;8.90;7.10;;;38.50;1.00;;;;;;5013085;28;20176;-72
2023/07/07 07:23:47;;;;;;;5.97;5.47;;;37.10;1.00;;;;;;5012686;28;20196;-71
2023/07/07 07:26:13;;;;;;;6.63;6.13;;;38.00;1.00;;;;;;5011641;28;20259;-71
2023/07/07 07:28:38;;;;;;;6.30;5.70;;;38.70;1.00;;;;;;5012778;28;20421;-72
2023/07/07 07:31:04;;;;;;;7.10;6.50;;;39.20;1.00;;;;;;5011487;28;20427;-72
2023/07/07 07:33:31;;;;;;;7.43;6.73;;;40.00;1.00;;;;;;5011050;28;20211;-73
2023/07/07 07:35:56;;;;;;;6.63;6.03;;;39.90;1.00;;;;;;5011155;28;20233;-73
2023/07/07 07:38:25;;;;;;;6.93;6.43;;;37.70;1.00;;;;;;5012608;28;20411;-74
2023/07/07 07:40:52;;;;;;;6.87;6.27;;;37.00;1.00;;;;;;5012844;28;20539;-73
2023/07/07 07:43:18;;;;;;;8.90;5.37;;;37.30;1.00;;;;;;5012381;28;20455;-73
2023/07/07 07:45:43;;;;;;;6.40;5.90;;;38.30;1.00;;;;;;5012217;28;20415;-73
2023/07/07 07:48:09;;;;;;;5.97;5.57;;;39.40;1.00;;;;;;5012813;28;20211;-73
2023/07/07 07:50:34;;;;;;;6.63;5.80;;;40.40;1.00;;;;;;5012781;28;20235;-71
2023/07/07 07:53:00;;;;;;;9.53;6.43;;;41.00;1.00;;;;;;5012370;28;20640;-72
2023/07/07 07:55:26;;;;;;;5.87;5.37;;;41.10;1.00;;;;;;5012469;28;20200;-71
2023/07/07 07:57:52;;;;;;;9.73;6.40;;;42.00;1.00;;;;;;5012381;28;20199;-71
2023/07/07 08:00:18;;;;;;;6.20;5.60;;;42.40;1.00;;;;;;5012422;28;20176;-73
2023/07/07 08:02:43;;;;;;;6.57;6.07;;;40.90;1.00;;;;;;5011004;28;20422;-72
2023/07/07 08:05:10;;;;;;;8.90;6.60;;;40.90;1.00;;;;;;5035628;23;20518;-68
2023/07/07 08:07:35;;;;;;;5.77;5.27;;;41.00;1.00;;;;;;5012802;28;20176;-68
2023/07/07 08:10:01;;;;;;;7.30;6.70;;;42.10;1.00;;;;;;5012765;28;20473;-68
2023/07/07 08:12:26;;;;;;;6.43;5.67;;;42.80;1.00;;;;;;5012124;28;20172;-68
2023/07/07 08:14:52;;;;;;;6.83;5.77;;;43.20;1.00;;;;;;5012516;28;20302;-68
2023/07/07 08:17:18;;;;;;;6.17;5.67;;;43.10;1.00;;;;;;5012411;28;20207;-68
2023/07/07 08:19:46;;;;;;;6.60;6.10;;;43.30;1.00;;;;;;5012873;28;20537;-68
2023/07/07 08:22:14;;;;;;;6.17;5.77;;;43.40;1.00;;;;;;5012313;28;20168;-68
2023/07/07 08:24:43;;;;;;;8.33;7.40;;;43.30;1.00;;;;;;5012219;28;20842;-68
2023/07/07 08:27:09;;;;;;;7.83;7.03;;;44.00;1.00;;;;;;5012442;28;20418;-68
2023/07/07 08:29:35;;;;;;;5.37;4.87;;;44.30;1.00;;;;;;5010982;28;20569;-68
2023/07/07 08:32:01;;;;;;;6.60;6.00;;;43.40;1.00;;;;;;5010827;28;20509;-68
2023/07/07 08:34:27;;;;;;;6.90;6.40;;;43.40;1.00;;;;;;5012409;28;20431;-68
2023/07/07 08:36:59;;;;;;;7.90;5.80;;;43.70;1.00;;;;;;5011171;28;20207;-68
2023/07/07 08:39:26;;;;;;;5.77;5.33;;;42.80;1.00;;;;;;5010811;28;20210;-68
2023/07/07 08:41:59;;;;;;;7.17;6.53;;;43.80;1.00;;;;;;5012013;28;20437;-68
2023/07/07 08:44:26;;;;;;;11.40;7.30;;;44.90;1.00;;;;;;5012297;28;20452;-68
2023/07/07 08:47:43;;;;;;;6.10;5.60;;;45.20;1.00;;;;;;5012074;28;20429;-68
2023/07/07 08:50:16;;;;;;;6.60;6.10;;;44.50;1.00;;;;;;4994670;28;20431;-68
2023/07/07 08:52:59;;;;;;;6.93;5.77;;;43.60;1.00;;;;;;5011786;28;20422;-68
2023/07/07 08:55:43;;;;;;;6.60;6.07;;;42.80;1.00;;;;;;5012615;28;20481;-68
2023/07/07 08:58:18;;;;;;;7.83;6.00;;;43.00;1.00;;;;;;5014669;28;20472;-68
2023/07/07 09:01:06;;;;;;;7.17;6.53;;;42.60;1.00;;;;;;5016039;28;20497;-68
2023/07/07 09:03:34;;;;;;;6.70;6.20;;;41.20;1.00;;;;;;5014303;28;20422;-68
2023/07/07 09:06:45;;;;;;;6.40;5.90;;;41.10;1.00;;;;;;5015819;28;20414;-68
2023/07/07 09:09:17;;;;;;;7.10;6.40;;;40.10;1.00;;;;;;4974532;28;20969;-68
2023/07/07 09:12:07;;;;;;;6.63;6.10;;;39.60;1.00;;;;;;4974327;28;20415;-68
2023/07/07 09:14:35;;;;;;;7.77;7.07;;;40.50;1.00;;;;;;5003812;28;20458;-68
2023/07/07 09:17:06;;;;;;;7.53;6.83;;;39.90;1.00;;;;;;5015415;28;20465;-68
2023/07/07 09:19:39;;;;;;;6.53;5.97;;;37.60;1.00;;;;;;5015358;28;20403;-68
2023/07/07 09:22:30;;;;;;;10.37;7.30;;;37.40;1.00;;;;;;5015220;28;20497;-68
2023/07/07 09:25:30;;;;;;;7.20;6.60;;;35.80;1.00;;;;;;4993699;28;20431;-68
2023/07/07 09:28:00;;;;;;;7.30;6.70;;;33.10;1.00;;;;;;4992857;28;20473;-68
2023/07/07 09:30:44;;;;;;;7.30;6.70;;;31.70;1.00;;;;;;5014516;28;20411;-67
2023/07/07 09:33:18;;;;;;;7.43;6.67;;;31.00;1.00;;;;;;5015321;28;20481;-67
2023/07/07 09:35:59;;;;;;;8.60;7.27;;;30.40;1.00;;;;;;5015605;28;20451;-67
2023/07/07 09:38:43;;;;;;;8.77;7.97;;;29.80;1.00;;;;;;5015489;28;20413;-67
2023/07/07 09:41:33;;;;;;;7.80;6.80;;;29.40;1.00;;;;;;5015536;28;20402;-67
2023/07/07 09:44:27;;;;;;;7.70;6.67;;;28.80;1.00;;;;;;5014931;28;20823;-68
2023/07/07 09:47:06;;;;;;;6.90;6.30;;;28.80;1.00;;;;;;5015292;28;20545;-68
2023/07/07 09:49:38;;;;;;;7.90;7.30;;;28.80;1.00;;;;;;5015128;28;20403;-67
2023/07/07 09:52:27;;;;;;;7.70;7.10;;;29.00;1.00;;;;;;5014976;28;20927;-67
2023/07/07 09:54:54;;;;;;;9.13;8.23;;;29.00;1.00;;;;;;5015270;28;20438;-67
2023/07/07 09:57:37;;;;;;;9.90;8.87;;;28.70;1.00;;;;;;5013365;28;20873;-67
2023/07/07 10:00:04;;;;;;;8.97;8.07;;;28.40;1.00;;;;;;5014745;28;20418;-67
2023/07/07 10:02:31;;;;;;;9.17;8.27;;;28.50;1.00;;;;;;5014401;28;20415;-67
2023/07/07 10:05:03;;;;;;;9.70;8.03;;;28.50;1.00;;;;;;5012955;28;20462;-67
2023/07/07 10:07:37;;;;;;;10.23;8.20;;;28.50;1.00;;;;;;5013040;28;20932;-67
2023/07/07 10:10:03;;;;;;;12.30;8.20;;;28.40;1.00;;;;;;5015056;28;20421;-67
2023/07/07 10:12:29;;;;;;;8.57;7.67;;;28.50;1.00;;;;;;5014468;28;20429;-67
2023/07/07 10:14:55;;;;;;;8.87;7.97;;;28.50;1.00;;;;;;5014649;28;20431;-67
2023/07/07 10:18:05;;;;;;;8.23;7.53;;;28.60;1.00;;;;;;5014339;28;20726;-67
2023/07/07 10:20:31;;;;;;;7.53;6.80;;;28.70;1.00;;;;;;4999038;28;20430;-67
2023/07/07 10:22:56;;;;;;;9.10;8.30;;;28.50;1.00;;;;;;5014339;28;20912;-67
2023/07/07 10:25:22;;;;;;;8.53;7.73;;;28.60;1.00;;;;;;5014339;28;20442;-67
2023/07/07 10:27:52;;;;;;;13.03;8.70;;;28.70;1.00;;;;;;5014503;28;20874;-67
2023/07/07 10:30:17;;;;;;;7.57;6.93;;;28.80;1.00;;;;;;5014642;28;20415;-67
2023/07/07 10:32:44;;;;;;;13.67;8.23;;;28.90;1.00;;;;;;5014005;28;20469;-67
2023/07/07 10:35:15;;;;;;;9.47;7.50;;;29.00;1.00;;;;;;5014254;28;20202;-67
2023/07/07 10:37:41;;;;;;;9.53;8.63;;;29.10;1.00;;;;;;5013062;28;20542;-67
2023/07/07 10:40:14;;;;;;;9.83;8.10;;;29.20;1.00;;;;;;5014325;28;20928;-67
2023/07/07 10:42:39;;;;;;;9.23;8.30;;;29.30;1.00;;;;;;5013902;28;20176;-67
2023/07/07 10:45:05;;;;;;;18.53;7.93;;;29.40;1.00;;;;;;5014031;28;20438;-67
2023/07/07 10:47:33;;;;;;;11.40;7.37;;;29.60;1.00;;;;;;5012837;28;20253;-67
2023/07/07 10:50:00;;;;;;;8.83;7.53;;;29.60;1.00;;;;;;5013925;28;20414;-67
2023/07/07 10:52:55;;;;;;;8.17;7.47;;;29.60;1.00;;;;;;5012351;28;20420;-67
2023/07/07 10:55:56;;;;;;;9.60;8.20;;;29.40;1.00;;;;;;5012543;28;20442;-68
2023/07/07 10:58:59;;;;;;;9.30;8.40;;;29.50;1.00;;;;;;5013682;28;20497;-68
2023/07/07 11:01:42;;;;;;;8.00;7.23;;;29.60;1.00;;;;;;5013587;28;20480;-68
2023/07/07 11:04:14;;;;;;;7.60;7.00;;;29.60;1.00;;;;;;5013426;28;20963;-68
2023/07/07 11:06:59;;;;;;;8.13;7.10;;;29.50;1.00;;;;;;5013286;28;20426;-68
2023/07/07 11:09:43;;;;;;;9.30;8.00;;;29.50;1.00;;;;;;5013402;28;20414;-68
2023/07/07 11:12:20;;;;;;;10.87;8.00;;;29.70;1.00;;;;;;5012005;28;20778;-68
2023/07/07 11:15:11;;;;;;;9.43;8.50;;;29.90;1.00;;;;;;5013543;28;20440;-68
2023/07/07 11:18:12;;;;;;;7.33;6.47;;;29.90;1.00;;;;;;5013329;28;20459;-68
2023/07/07 11:21:03;;;;;;;7.47;6.80;;;29.90;1.00;;;;;;4999606;28;21027;-68
2023/07/07 11:24:06;;;;;;;8.20;7.60;;;29.70;1.00;;;;;;5012766;28;20430;-68
2023/07/07 11:27:03;;;;;;;8.93;8.10;;;29.80;1.00;;;;;;5012062;28;20422;-68
2023/07/07 11:29:43;;;;;;;8.63;7.73;;;29.80;1.00;;;;;;5013441;28;20781;-68
2023/07/07 11:32:20;;;;;;;9.30;7.93;;;29.90;1.00;;;;;;5012996;28;20422;-68
2023/07/07 11:35:11;;;;;;;18.40;10.97;;;29.80;1.00;;;;;;5013082;28;20450;-68
2023/07/07 11:37:47;;;;;;;11.03;7.53;;;29.70;1.00;;;;;;5013286;28;20565;-68
2023/07/07 11:40:27;;;;;;;8.30;7.50;;;29.80;1.00;;;;;;5013432;28;20465;-69
2023/07/07 11:43:02;;;;;;;7.30;6.60;;;29.80;1.00;;;;;;5012584;28;20494;-68
2023/07/07 11:45:37;;;;;;;8.00;7.30;;;29.90;1.00;;;;;;5013125;28;20434;-68
2023/07/07 11:48:26;;;;;;;7.90;7.27;;;29.90;1.00;;;;;;5013115;28;20419;-69
2023/07/07 11:51:15;;;;;;;7.23;6.53;;;30.00;1.00;;;;;;5012782;28;20419;-68
2023/07/07 11:54:01;;;;;;;7.60;6.90;;;30.00;1.00;;;;;;5012621;28;20415;-68
2023/07/07 11:56:51;;;;;;;8.30;7.53;;;30.00;1.00;;;;;;4991000;28;20825;-68
2023/07/07 11:59:29;;;;;;;8.90;7.07;;;30.10;1.00;;;;;;5012533;28;20466;-68
2023/07/07 12:01:57;;;;;;;12.00;8.50;;;30.00;1.00;;;;;;5012387;28;20574;-69
2023/07/07 12:04:31;;;;;;;7.63;6.93;;;29.90;1.00;;;;;;5012305;28;20455;-69
2023/07/07 12:07:03;;;;;;;6.87;5.90;;;30.00;1.00;;;;;;5012401;28;20407;-69
2023/07/07 12:09:32;;;;;;;11.40;7.03;;;30.00;1.00;;;;;;5012288;28;20472;-68
2023/07/07 12:12:19;;;;;;;8.80;7.20;;;30.00;1.00;;;;;;5012034;28;20411;-69
2023/07/07 12:14:58;;;;;;;9.50;7.77;;;30.00;1.00;;;;;;5012402;28;20431;-69
2023/07/07 12:17:31;;;;;;;8.37;7.67;;;30.10;1.00;;;;;;5012241;28;20465;-69
2023/07/07 12:20:03;;;;;;;14.43;7.47;;;30.10;1.00;;;;;;5012483;28;20426;-68
2023/07/07 12:22:35;;;;;;;7.57;6.97;;;30.20;1.00;;;;;;5012021;28;20415;-68
2023/07/07 12:25:25;;;;;;;8.57;7.80;;;30.00;1.00;;;;;;5010939;28;20944;-69
2023/07/07 12:27:51;;;;;;;7.10;6.50;;;30.10;1.00;;;;;;5011775;28;20427;-69
2023/07/07 12:30:30;;;;;;;7.93;6.90;;;30.10;1.00;;;;;;5011922;28;20419;-69
2023/07/07 12:32:57;;;;;;;9.40;7.07;;;30.20;1.00;;;;;;5011816;28;20450;-69
2023/07/07 12:35:31;;;;;;;8.07;7.37;;;30.20;1.00;;;;;;5011976;28;20438;-69
2023/07/07 12:38:19;;;;;;;7.90;7.00;;;30.00;1.00;;;;;;5012012;28;20473;-69
2023/07/07 12:40:45;;;;;;;7.27;6.67;;;30.10;1.00;;;;;;5010776;28;20509;-68
2023/07/07 12:43:37;;;;;;;7.13;6.53;;;30.10;1.00;;;;;;5010389;28;20497;-69
2023/07/07 12:46:06;;;;;;;7.60;6.93;;;30.20;1.00;;;;;;5011922;28;20172;-68
2023/07/07 12:48:31;;;;;;;7.10;6.50;;;30.20;1.00;;;;;;5011941;28;20407;-68
2023/07/07 12:51:06;;;;;;;8.10;7.00;;;30.00;1.00;;;;;;5011984;28;20538;-69
2023/07/07 12:53:41;;;;;;;8.90;6.90;;;30.00;1.00;;;;;;5010199;28;20176;-68
2023/07/07 12:56:06;;;;;;;10.07;7.93;;;30.10;1.00;;;;;;5010400;28;20477;-68
2023/07/07 12:58:46;;;;;;;9.43;6.80;;;30.20;1.00;;;;;;5011946;28;20415;-68
2023/07/07 13:01:30;;;;;;;7.03;6.43;;;30.40;1.00;;;;;;5011833;28;20255;-69
2023/07/07 13:03:59;;;;;;;6.97;5.93;;;30.30;1.00;;;;;;5010201;28;20451;-68
2023/07/07 13:06:56;;;;;;;6.93;6.37;;;30.50;1.00;;;;;;5012049;28;20523;-68
2023/07/07 13:09:24;;;;;;;7.40;6.60;;;30.50;1.00;;;;;;5011910;28;20450;-69
2023/07/07 13:11:58;;;;;;;6.77;6.17;;;30.50;1.00;;;;;;5011366;28;20920;-68